METAR Data
IDs: Format: Raw Decoded Include TAF

Data at: 1915 UTC 26 Sep 2021

KGMJ 261855Z AUTO 21014G22KT CLR 31/12 A3002 RMK AO2 PWINO